Time;durP1;ratioP1;P1;durP2;ratioP2;P2;SDS_P1;SDS_P2;PMS_P1;PMS_P2;Temp;Humidity;BMP_temperature;BMP_pressure;BME280_temperature;BME280_humidity;BME280_pressure;Samples;Min_cycle;Max_cycle;Signal;HPM_P1;HPM_P2
2024/04/17 00:01:18;;;;;;;7.50;3.22;;;8.50;99.90;;;;;;5480770;25;20012;-68
2024/04/17 00:03:44;;;;;;;7.97;3.38;;;8.40;99.90;;;;;;5515161;26;19994;-68
2024/04/17 00:06:12;;;;;;;12.85;5.45;;;8.50;99.90;;;;;;5507905;26;19998;-68
2024/04/17 00:08:37;;;;;;;8.65;3.83;;;8.50;99.90;;;;;;5505547;25;19989;-68
2024/04/17 00:11:03;;;;;;;6.70;4.05;;;8.50;99.90;;;;;;5479599;26;20004;-68
2024/04/17 00:13:30;;;;;;;5.18;3.20;;;8.50;99.90;;;;;;5516342;25;20691;-68
2024/04/17 00:15:58;;;;;;;8.10;3.53;;;8.50;99.90;;;;;;5509670;26;20005;-68
2024/04/17 00:18:24;;;;;;;9.95;4.15;;;8.50;99.90;;;;;;5512435;25;20057;-68
2024/04/17 00:20:50;;;;;;;11.82;4.47;;;8.40;99.90;;;;;;5514350;26;20037;-68
2024/04/17 00:23:15;;;;;;;9.60;3.72;;;8.40;99.90;;;;;;5515298;25;20463;-68
2024/04/17 00:25:41;;;;;;;7.75;3.40;;;8.40;99.90;;;;;;5501423;26;20021;-68
2024/04/17 00:28:06;;;;;;;6.88;3.80;;;8.40;99.90;;;;;;5515326;25;20670;-68
2024/04/17 00:30:32;;;;;;;5.60;3.08;;;8.40;99.90;;;;;;5478891;26;20041;-68
2024/04/17 00:32:58;;;;;;;8.05;3.65;;;8.40;99.90;;;;;;5499474;25;19998;-68
2024/04/17 00:35:23;;;;;;;9.98;3.30;;;8.30;99.90;;;;;;5506462;25;19998;-68
2024/04/17 00:37:49;;;;;;;7.18;3.45;;;8.30;99.90;;;;;;5507169;25;20016;-68
2024/04/17 00:40:14;;;;;;;7.32;3.70;;;8.30;99.90;;;;;;5472470;26;19998;-68
2024/04/17 00:42:40;;;;;;;12.52;2.95;;;8.40;99.90;;;;;;5505112;25;19997;-68
2024/04/17 00:45:05;;;;;;;5.95;2.88;;;8.40;99.90;;;;;;5510097;25;20144;-68
2024/04/17 00:47:31;;;;;;;9.82;3.90;;;8.40;99.90;;;;;;5515942;25;20000;-68
2024/04/17 00:49:57;;;;;;;6.18;2.90;;;8.40;99.90;;;;;;5509426;25;19997;-68
2024/04/17 00:52:23;;;;;;;6.70;2.83;;;8.40;99.90;;;;;;5512252;25;20429;-68
2024/04/17 00:54:49;;;;;;;9.73;3.50;;;8.40;99.90;;;;;;5513090;25;20005;-68
2024/04/17 00:57:15;;;;;;;6.75;3.50;;;8.30;99.90;;;;;;5499823;26;20069;-68
2024/04/17 00:59:43;;;;;;;14.45;3.45;;;8.30;99.90;;;;;;5477410;25;20006;-68
2024/04/17 01:02:08;;;;;;;11.35;3.08;;;8.30;99.90;;;;;;5481408;26;20051;-68
2024/04/17 01:04:34;;;;;;;9.45;3.22;;;8.20;99.90;;;;;;5511605;25;19993;-68
2024/04/17 01:07:00;;;;;;;6.53;2.70;;;8.20;99.90;;;;;;5505303;25;20016;-68
2024/04/17 01:09:25;;;;;;;6.72;3.10;;;8.20;99.90;;;;;;5478764;25;19994;-68
2024/04/17 01:11:51;;;;;;;6.43;3.15;;;8.10;99.90;;;;;;5508238;25;20535;-68
2024/04/17 01:14:17;;;;;;;10.98;3.88;;;8.00;99.90;;;;;;5500406;25;20002;-68
2024/04/17 01:16:43;;;;;;;12.52;3.63;;;8.10;99.90;;;;;;5477401;26;20242;-68
2024/04/17 01:19:09;;;;;;;8.95;2.58;;;8.10;99.90;;;;;;5511599;25;20004;-68
2024/04/17 01:21:36;;;;;;;8.65;2.67;;;8.00;99.90;;;;;;5501777;25;20085;-68
2024/04/17 01:24:01;;;;;;;6.80;2.90;;;8.10;99.90;;;;;;5507297;25;19993;-68
2024/04/17 01:26:27;;;;;;;6.18;2.63;;;8.00;99.90;;;;;;5514397;25;20005;-68
2024/04/17 01:28:53;;;;;;;15.27;3.47;;;8.00;99.90;;;;;;5481554;26;20036;-68
2024/04/17 01:31:19;;;;;;;13.73;2.97;;;8.00;99.90;;;;;;5480853;25;19997;-68
2024/04/17 01:33:44;;;;;;;9.20;3.05;;;8.00;99.90;;;;;;5512008;26;20462;-68
2024/04/17 01:36:11;;;;;;;15.52;4.07;;;8.00;99.90;;;;;;5502674;25;20451;-68
2024/04/17 01:38:37;;;;;;;16.13;3.70;;;8.10;99.90;;;;;;5510594;25;20016;-68
2024/04/17 01:41:03;;;;;;;10.73;3.28;;;8.00;99.90;;;;;;5496071;25;20013;-68
2024/04/17 01:43:30;;;;;;;9.25;3.28;;;8.00;99.90;;;;;;5478846;26;20385;-69
2024/04/17 01:45:56;;;;;;;10.70;3.80;;;8.00;99.90;;;;;;5508965;25;20663;-68
2024/04/17 01:48:22;;;;;;;15.60;3.50;;;8.00;99.90;;;;;;5476264;26;20073;-68
2024/04/17 01:50:47;;;;;;;16.75;4.05;;;7.90;99.90;;;;;;5508375;25;20462;-68
2024/04/17 01:53:13;;;;;;;8.23;3.50;;;7.90;99.90;;;;;;5478505;25;20001;-68
2024/04/17 01:55:39;;;;;;;7.70;3.65;;;8.00;99.90;;;;;;5502677;25;20037;-68
2024/04/17 01:58:04;;;;;;;16.05;3.97;;;8.00;99.90;;;;;;5514769;25;19993;-68
2024/04/17 02:00:30;;;;;;;17.50;3.67;;;8.00;99.90;;;;;;5503506;25;19990;-68
2024/04/17 02:02:55;;;;;;;5.82;2.72;;;8.00;99.90;;;;;;5494833;25;19997;-68
2024/04/17 02:05:21;;;;;;;14.45;3.78;;;7.90;99.90;;;;;;5513275;25;20009;-68
2024/04/17 02:07:47;;;;;;;14.25;3.65;;;8.00;99.90;;;;;;5503297;25;19994;-68
2024/04/17 02:10:12;;;;;;;9.05;3.17;;;7.90;99.90;;;;;;5508120;25;20008;-68
2024/04/17 02:12:38;;;;;;;8.88;3.15;;;7.90;99.90;;;;;;5510228;25;19993;-68
2024/04/17 02:15:06;;;;;;;10.73;2.97;;;7.80;99.90;;;;;;5514055;25;19994;-68
2024/04/17 02:17:31;;;;;;;14.05;3.20;;;7.80;99.90;;;;;;5472906;25;20086;-68
2024/04/17 02:19:57;;;;;;;11.98;3.03;;;7.80;99.90;;;;;;5503059;25;20802;-68
2024/04/17 02:22:22;;;;;;;16.27;3.80;;;7.80;99.90;;;;;;5504170;25;19998;-68
2024/04/17 02:24:48;;;;;;;8.65;2.95;;;7.80;99.90;;;;;;5497358;25;20021;-68
2024/04/17 02:27:13;;;;;;;9.73;2.65;;;7.70;99.90;;;;;;5477161;26;20368;-68
2024/04/17 02:29:39;;;;;;;8.10;2.80;;;7.70;99.90;;;;;;5473768;26;20013;-68
2024/04/17 02:32:05;;;;;;;18.58;3.08;;;7.60;99.90;;;;;;5506918;25;20042;-68
2024/04/17 02:34:31;;;;;;;9.35;3.15;;;7.60;99.90;;;;;;5501587;26;20074;-68
2024/04/17 02:36:56;;;;;;;11.90;3.97;;;7.60;99.90;;;;;;5513059;25;20001;-68
2024/04/17 02:39:22;;;;;;;10.93;3.38;;;7.40;99.90;;;;;;5505335;25;19994;-67
2024/04/17 02:41:47;;;;;;;10.65;3.55;;;7.40;99.90;;;;;;5508265;26;19994;-68
2024/04/17 02:44:13;;;;;;;15.10;3.65;;;7.40;99.90;;;;;;5506971;25;20050;-68
2024/04/17 02:46:38;;;;;;;12.50;3.70;;;7.30;99.90;;;;;;5481307;26;20515;-68
2024/04/17 02:49:04;;;;;;;14.88;3.53;;;7.30;99.90;;;;;;5510291;25;20041;-68
2024/04/17 02:51:30;;;;;;;17.77;3.60;;;7.30;99.90;;;;;;5514168;25;20391;-68
2024/04/17 02:53:55;;;;;;;10.93;2.88;;;7.20;99.90;;;;;;5506333;26;20001;-68
2024/04/17 02:56:21;;;;;;;10.80;3.15;;;7.20;99.90;;;;;;5479347;25;20002;-68
2024/04/17 02:58:46;;;;;;;17.08;3.58;;;7.10;99.90;;;;;;5512513;25;19999;-68
2024/04/17 03:01:13;;;;;;;8.82;3.35;;;7.10;99.90;;;;;;5506540;25;19994;-68
2024/04/17 03:03:38;;;;;;;11.63;3.58;;;7.00;99.90;;;;;;5512032;25;20029;-68
2024/04/17 03:06:04;;;;;;;12.45;3.55;;;7.00;99.90;;;;;;5510209;25;19998;-68
2024/04/17 03:08:30;;;;;;;11.75;3.60;;;7.00;99.90;;;;;;5488454;26;20019;-68
2024/04/17 03:10:59;;;;;;;15.15;3.45;;;6.90;99.90;;;;;;5513817;26;19998;-68
2024/04/17 03:13:24;;;;;;;7.07;2.38;;;6.80;99.90;;;;;;5510430;25;20002;-68
2024/04/17 03:15:50;;;;;;;14.50;3.80;;;6.80;99.90;;;;;;5511111;25;20016;-68
2024/04/17 03:18:15;;;;;;;13.55;3.22;;;6.80;99.90;;;;;;5510705;25;20090;-68
2024/04/17 03:20:41;;;;;;;11.93;3.58;;;6.80;99.90;;;;;;5514256;26;20035;-68
2024/04/17 03:23:07;;;;;;;13.60;3.40;;;6.80;99.90;;;;;;5510357;26;20415;-68
2024/04/17 03:25:33;;;;;;;14.27;3.55;;;6.70;99.90;;;;;;5515147;26;20075;-68
2024/04/17 03:27:59;;;;;;;17.98;3.08;;;6.70;99.90;;;;;;5511734;25;20005;-68
2024/04/17 03:30:24;;;;;;;13.02;3.35;;;6.70;99.90;;;;;;5514739;25;20076;-68
2024/04/17 03:32:50;;;;;;;14.07;2.97;;;6.70;99.90;;;;;;5511516;25;20012;-68
2024/04/17 03:35:15;;;;;;;10.50;2.92;;;6.70;99.90;;;;;;5511901;26;20002;-68
2024/04/17 03:37:41;;;;;;;6.93;2.30;;;6.70;99.90;;;;;;5507515;26;20012;-68
2024/04/17 03:40:07;;;;;;;8.52;2.65;;;6.70;99.90;;;;;;5498086;25;20031;-68
2024/04/17 03:42:33;;;;;;;11.93;2.63;;;6.70;99.90;;;;;;5512539;26;20010;-68
2024/04/17 03:44:59;;;;;;;11.40;3.08;;;6.70;99.90;;;;;;5509283;25;20598;-68
2024/04/17 03:47:24;;;;;;;12.70;3.40;;;6.70;99.90;;;;;;5508958;25;20009;-68
2024/04/17 03:49:50;;;;;;;13.02;3.28;;;6.70;99.90;;;;;;5479675;25;20041;-68
2024/04/17 03:52:16;;;;;;;12.73;2.80;;;6.70;99.90;;;;;;5507263;25;19993;-68
2024/04/17 03:54:41;;;;;;;12.52;2.67;;;6.70;99.90;;;;;;5511447;25;20115;-68
2024/04/17 03:57:07;;;;;;;12.60;3.40;;;6.70;99.90;;;;;;5477023;26;20004;-68
2024/04/17 03:59:32;;;;;;;9.43;2.80;;;6.60;99.90;;;;;;5512465;25;20041;-68
2024/04/17 04:01:58;;;;;;;9.90;2.88;;;6.60;99.90;;;;;;5473030;26;20070;-68
2024/04/17 04:04:24;;;;;;;16.98;3.35;;;6.60;99.90;;;;;;5510271;25;19993;-68
2024/04/17 04:06:49;;;;;;;13.25;2.80;;;6.60;99.90;;;;;;5514588;25;20020;-68
2024/04/17 04:09:15;;;;;;;18.42;3.30;;;6.60;99.90;;;;;;5504186;25;20013;-68
2024/04/17 04:11:41;;;;;;;16.27;3.00;;;6.50;99.90;;;;;;5499579;25;20529;-68
2024/04/17 04:14:07;;;;;;;13.30;2.67;;;6.50;99.90;;;;;;5517864;26;20005;-68
2024/04/17 04:16:33;;;;;;;11.52;2.92;;;6.50;99.90;;;;;;5505417;25;20008;-68
2024/04/17 04:18:58;;;;;;;5.80;2.28;;;6.40;99.90;;;;;;5515035;25;19994;-65
2024/04/17 04:21:24;;;;;;;8.50;2.17;;;6.40;99.90;;;;;;5509622;25;20787;-65
2024/04/17 04:23:50;;;;;;;7.53;2.70;;;6.40;99.90;;;;;;5513457;25;20469;-65
2024/04/17 04:26:15;;;;;;;9.48;3.33;;;6.40;99.90;;;;;;5509119;25;19998;-65
2024/04/17 04:28:41;;;;;;;16.38;3.13;;;6.40;99.90;;;;;;5474118;26;20005;-65
2024/04/17 04:31:07;;;;;;;10.90;2.42;;;6.40;99.90;;;;;;5510054;25;20002;-65
2024/04/17 04:33:32;;;;;;;13.63;3.33;;;6.40;99.90;;;;;;5513156;25;20009;-65
2024/04/17 04:35:58;;;;;;;16.45;3.47;;;6.40;99.90;;;;;;5510711;25;20584;-65
2024/04/17 04:38:24;;;;;;;5.43;2.38;;;6.40;99.90;;;;;;5510814;25;20018;-65
2024/04/17 04:40:50;;;;;;;6.88;2.67;;;6.50;99.90;;;;;;5514354;25;20001;-65
2024/04/17 04:43:16;;;;;;;9.93;2.80;;;6.50;99.90;;;;;;5516919;25;20009;-65
2024/04/17 04:45:41;;;;;;;21.75;3.70;;;6.50;99.90;;;;;;5509116;25;20457;-65
2024/04/17 04:48:07;;;;;;;8.00;2.55;;;6.60;99.90;;;;;;5478662;26;20002;-65
2024/04/17 04:50:33;;;;;;;8.00;3.13;;;6.60;99.90;;;;;;5510870;25;20008;-65
2024/04/17 04:52:58;;;;;;;14.35;3.55;;;6.60;99.90;;;;;;5508254;25;20008;-65
2024/04/17 04:55:24;;;;;;;17.60;3.60;;;6.60;99.90;;;;;;5512011;25;20543;-65
2024/04/17 04:57:50;;;;;;;10.73;2.97;;;6.70;99.90;;;;;;5513598;25;20013;-65
2024/04/17 05:00:15;;;;;;;12.10;2.88;;;6.60;99.90;;;;;;5479118;25;20498;-65
2024/04/17 05:02:41;;;;;;;10.95;2.65;;;6.60;99.90;;;;;;5477912;26;20604;-65
2024/04/17 05:05:06;;;;;;;12.95;3.03;;;6.70;99.90;;;;;;5510376;26;20003;-65
2024/04/17 05:07:32;;;;;;;13.90;2.88;;;6.70;99.90;;;;;;5505230;25;20005;-65
2024/04/17 05:09:58;;;;;;;10.25;2.50;;;6.70;99.90;;;;;;5476313;26;20075;-65
2024/04/17 05:12:23;;;;;;;9.80;3.03;;;6.70;99.90;;;;;;5510964;26;19990;-65
2024/04/17 05:14:49;;;;;;;10.60;2.95;;;6.70;99.90;;;;;;5507852;26;20017;-65
2024/04/17 05:17:14;;;;;;;13.65;3.13;;;6.70;99.90;;;;;;5507869;25;20700;-65
2024/04/17 05:19:40;;;;;;;14.20;3.80;;;6.70;99.90;;;;;;5492471;25;20046;-65
2024/04/17 05:22:05;;;;;;;18.88;5.20;;;6.70;99.90;;;;;;5476301;25;19995;-65
2024/04/17 05:24:31;;;;;;;16.08;3.58;;;6.80;99.90;;;;;;5505903;25;20053;-65
2024/04/17 05:26:57;;;;;;;12.32;3.20;;;6.80;99.90;;;;;;5514611;25;19993;-65
2024/04/17 05:29:22;;;;;;;10.55;3.17;;;6.70;99.90;;;;;;5499203;25;20447;-65
2024/04/17 05:31:48;;;;;;;11.50;3.00;;;6.80;99.90;;;;;;5504222;26;20037;-65
2024/04/17 05:34:14;;;;;;;13.60;3.13;;;6.80;99.90;;;;;;5502090;25;20001;-65
2024/04/17 05:36:39;;;;;;;9.30;2.70;;;6.80;99.90;;;;;;5502655;25;20009;-66
2024/04/17 05:39:05;;;;;;;12.95;2.97;;;6.80;99.90;;;;;;5501712;25;20048;-65
2024/04/17 05:41:31;;;;;;;9.13;2.75;;;6.80;99.90;;;;;;5506239;25;20073;-66
2024/04/17 05:43:56;;;;;;;11.20;2.78;;;6.80;99.90;;;;;;5471102;26;20014;-66
2024/04/17 05:46:25;;;;;;;13.43;3.00;;;6.80;99.90;;;;;;5474883;26;20012;-65
2024/04/17 05:48:51;;;;;;;18.13;2.97;;;6.80;99.90;;;;;;5513744;25;20001;-66
2024/04/17 05:51:17;;;;;;;10.57;3.80;;;6.90;99.90;;;;;;5476199;26;20606;-66
2024/04/17 05:53:42;;;;;;;13.18;2.83;;;6.90;99.90;;;;;;5509033;25;19998;-66
2024/04/17 05:56:08;;;;;;;6.97;2.47;;;7.00;99.90;;;;;;5511680;25;19997;-66
2024/04/17 05:58:33;;;;;;;9.88;2.88;;;7.00;99.90;;;;;;5512893;25;20005;-65
2024/04/17 06:00:59;;;;;;;12.77;3.15;;;7.00;99.90;;;;;;5474394;26;20009;-66
2024/04/17 06:03:24;;;;;;;16.60;2.80;;;7.00;99.90;;;;;;5480091;26;20001;-66
2024/04/17 06:05:50;;;;;;;10.77;3.38;;;7.00;99.90;;;;;;5477358;26;20670;-66
2024/04/17 06:08:16;;;;;;;13.40;2.47;;;7.00;99.90;;;;;;5507034;26;20011;-66
2024/04/17 06:10:41;;;;;;;11.32;2.88;;;7.00;99.90;;;;;;5481893;26;20026;-66
2024/04/17 06:13:07;;;;;;;12.73;2.92;;;7.00;99.90;;;;;;5500371;25;20000;-66
2024/04/17 06:15:35;;;;;;;14.38;3.05;;;7.10;99.90;;;;;;5511296;26;20010;-66
2024/04/17 06:18:02;;;;;;;14.32;3.17;;;7.00;99.90;;;;;;5511611;25;20002;-66
2024/04/17 06:20:28;;;;;;;9.13;2.40;;;7.00;99.90;;;;;;5512077;26;20652;-66
2024/04/17 06:22:53;;;;;;;6.93;2.55;;;7.00;99.90;;;;;;5479207;26;20013;-66
2024/04/17 06:25:19;;;;;;;11.65;2.47;;;7.00;99.90;;;;;;5510429;26;20001;-66
2024/04/17 06:27:45;;;;;;;19.95;2.47;;;6.90;99.90;;;;;;5480623;26;20747;-66
2024/04/17 06:30:10;;;;;;;14.95;3.13;;;6.90;99.90;;;;;;5514715;25;20009;-66
2024/04/17 06:32:36;;;;;;;18.85;3.90;;;6.90;99.90;;;;;;5516272;25;20438;-66
2024/04/17 06:35:02;;;;;;;7.22;1.90;;;7.00;99.90;;;;;;5483599;26;20076;-66
2024/04/17 06:37:28;;;;;;;13.60;2.72;;;7.10;99.90;;;;;;5482581;26;20085;-66
2024/04/17 06:39:53;;;;;;;9.95;2.90;;;7.10;99.90;;;;;;5515554;26;20017;-66
2024/04/17 06:42:19;;;;;;;10.70;2.35;;;7.20;99.90;;;;;;5515917;25;20556;-66
2024/04/17 06:44:44;;;;;;;23.67;3.65;;;7.20;99.90;;;;;;5512319;26;20026;-66
2024/04/17 06:47:10;;;;;;;9.20;2.38;;;7.20;99.90;;;;;;5515704;26;20151;-66
2024/04/17 06:49:35;;;;;;;18.85;4.85;;;7.20;99.90;;;;;;5480758;26;20022;-66
2024/04/17 06:52:01;;;;;;;14.95;2.70;;;7.20;99.90;;;;;;5515563;26;20495;-66
2024/04/17 06:54:26;;;;;;;12.35;3.15;;;7.30;99.90;;;;;;5513472;26;20020;-66
2024/04/17 06:56:52;;;;;;;19.88;3.83;;;7.40;99.90;;;;;;5515189;26;20009;-66
2024/04/17 06:59:18;;;;;;;13.68;3.17;;;7.40;99.90;;;;;;5515146;26;20012;-66
2024/04/17 07:01:43;;;;;;;10.25;2.78;;;7.40;99.90;;;;;;5512465;26;20589;-66
2024/04/17 07:04:09;;;;;;;10.18;3.22;;;7.40;99.90;;;;;;5514243;26;20004;-66
2024/04/17 07:06:34;;;;;;;16.63;3.90;;;7.50;99.90;;;;;;5513584;25;20017;-66
2024/04/17 07:09:00;;;;;;;19.98;3.17;;;7.60;99.90;;;;;;5501332;26;19997;-66
2024/04/17 07:11:25;;;;;;;10.10;2.30;;;7.60;99.90;;;;;;5514750;26;20057;-66
2024/04/17 07:13:51;;;;;;;12.38;3.67;;;7.60;99.90;;;;;;5515392;26;20002;-66
2024/04/17 07:16:18;;;;;;;13.50;2.53;;;7.70;99.90;;;;;;5514626;26;20033;-66
2024/04/17 07:18:45;;;;;;;12.60;3.38;;;7.60;99.90;;;;;;5497990;26;19994;-66
2024/04/17 07:21:10;;;;;;;21.45;3.53;;;7.70;99.90;;;;;;5512115;26;19997;-66
2024/04/17 07:23:38;;;;;;;24.95;4.22;;;7.80;99.90;;;;;;5515235;26;20473;-66
2024/04/17 07:26:04;;;;;;;19.45;3.20;;;7.90;99.90;;;;;;5514215;26;20013;-66
2024/04/17 07:28:29;;;;;;;13.82;2.50;;;8.00;99.90;;;;;;5517897;26;19997;-66
2024/04/17 07:30:55;;;;;;;17.20;3.15;;;8.10;99.90;;;;;;5507963;25;20049;-66
2024/04/17 07:33:21;;;;;;;11.20;2.85;;;8.10;99.90;;;;;;5516021;25;20064;-65
2024/04/17 07:35:46;;;;;;;10.07;3.20;;;8.20;99.90;;;;;;5515145;25;20070;-66
2024/04/17 07:38:12;;;;;;;18.92;3.38;;;8.20;99.90;;;;;;5514109;26;19993;-66
2024/04/17 07:40:38;;;;;;;17.30;3.13;;;8.40;99.90;;;;;;5515986;26;20013;-66
2024/04/17 07:43:04;;;;;;;9.63;2.78;;;8.40;99.90;;;;;;5486362;26;20401;-66
2024/04/17 07:45:30;;;;;;;19.40;3.15;;;8.50;99.90;;;;;;5515995;25;20001;-66
2024/04/17 07:47:56;;;;;;;8.15;2.53;;;8.50;99.90;;;;;;5486425;26;20073;-66
2024/04/17 07:50:21;;;;;;;9.30;2.30;;;8.60;99.90;;;;;;5518802;26;20020;-66
2024/04/17 07:52:47;;;;;;;9.55;2.55;;;8.60;99.90;;;;;;5517106;25;20004;-66
2024/04/17 07:55:13;;;;;;;8.35;2.25;;;8.60;99.90;;;;;;5481997;26;20009;-66
2024/04/17 07:57:38;;;;;;;7.35;2.55;;;8.60;99.90;;;;;;5518996;26;19998;-66
2024/04/17 08:00:04;;;;;;;10.57;2.45;;;8.60;99.90;;;;;;5518694;26;20012;-66
2024/04/17 08:02:31;;;;;;;9.40;2.83;;;8.70;99.90;;;;;;5513872;25;20072;-66
2024/04/17 08:04:57;;;;;;;10.85;2.20;;;8.80;99.90;;;;;;5518504;26;20041;-66
2024/04/17 08:07:22;;;;;;;15.35;2.88;;;9.00;99.90;;;;;;5515712;26;20009;-66
2024/04/17 08:09:48;;;;;;;14.40;2.95;;;9.10;99.90;;;;;;5515478;26;20474;-66
2024/04/17 08:12:13;;;;;;;10.10;3.08;;;9.30;99.90;;;;;;5514703;26;20005;-66
2024/04/17 08:14:39;;;;;;;9.98;2.65;;;9.40;99.90;;;;;;5511728;26;20536;-66
2024/04/17 08:17:04;;;;;;;12.23;2.70;;;9.50;99.90;;;;;;5512044;26;20001;-66
2024/04/17 08:19:30;;;;;;;18.52;2.55;;;9.60;99.90;;;;;;5518416;26;20037;-66
2024/04/17 08:21:56;;;;;;;10.68;2.15;;;9.70;99.90;;;;;;5509856;25;19998;-66
2024/04/17 08:24:21;;;;;;;6.72;2.42;;;9.70;99.90;;;;;;5518500;26;19997;-66
2024/04/17 08:26:48;;;;;;;6.18;1.85;;;9.70;99.90;;;;;;5518042;26;19994;-66
2024/04/17 08:29:14;;;;;;;7.70;1.95;;;9.80;99.90;;;;;;5477421;26;20033;-66
2024/04/17 08:31:39;;;;;;;13.10;1.98;;;9.90;99.90;;;;;;5517349;26;19997;-66
2024/04/17 08:34:05;;;;;;;11.70;3.03;;;10.00;99.90;;;;;;5514604;25;19993;-66
2024/04/17 08:36:30;;;;;;;12.18;2.63;;;10.00;99.90;;;;;;5493958;25;20447;-66
2024/04/17 08:38:56;;;;;;;9.90;2.30;;;10.10;99.90;;;;;;5496118;26;20490;-66
2024/04/17 08:41:28;;;;;;;9.63;2.70;;;10.10;99.90;;;;;;5514903;26;19997;-66
2024/04/17 08:44:01;;;;;;;9.80;2.17;;;10.10;99.90;;;;;;5477866;26;20002;-67
2024/04/17 08:46:28;;;;;;;5.35;2.17;;;10.20;99.90;;;;;;5515378;26;20016;-66
2024/04/17 08:48:55;;;;;;;9.57;2.40;;;10.30;99.90;;;;;;5510638;25;20723;-66
2024/04/17 08:51:24;;;;;;;11.23;2.00;;;10.40;99.90;;;;;;5508517;25;19993;-67
2024/04/17 08:53:52;;;;;;;7.38;2.35;;;10.50;99.90;;;;;;5517440;26;20073;-66
2024/04/17 08:56:18;;;;;;;12.80;2.15;;;10.70;99.90;;;;;;5484999;26;20001;-66
2024/04/17 08:58:45;;;;;;;14.73;2.45;;;10.70;99.90;;;;;;5517025;26;20077;-66
2024/04/17 09:01:11;;;;;;;11.45;2.35;;;10.90;99.90;;;;;;5499184;25;20002;-66
2024/04/17 09:03:41;;;;;;;10.20;2.65;;;11.00;99.90;;;;;;5516713;26;20009;-66
2024/04/17 09:06:08;;;;;;;6.40;1.98;;;11.00;99.90;;;;;;5477938;26;19997;-66
2024/04/17 09:08:36;;;;;;;6.18;2.10;;;11.10;99.90;;;;;;5515208;26;19993;-66
2024/04/17 09:11:02;;;;;;;8.63;1.95;;;11.00;99.90;;;;;;5517250;26;20575;-66
2024/04/17 09:13:28;;;;;;;5.57;2.10;;;11.10;99.90;;;;;;5514077;26;20001;-66
2024/04/17 09:15:54;;;;;;;9.73;2.35;;;11.10;99.90;;;;;;5516609;26;20046;-66
2024/04/17 09:18:28;;;;;;;8.88;2.70;;;11.20;99.90;;;;;;5515975;25;20423;-66
2024/04/17 09:20:57;;;;;;;13.07;2.47;;;11.40;99.90;;;;;;5516288;26;20002;-66
2024/04/17 09:23:23;;;;;;;12.85;2.22;;;11.50;99.90;;;;;;5516835;26;19993;-66
2024/04/17 09:25:48;;;;;;;6.80;2.15;;;11.50;99.90;;;;;;5516894;26;19997;-66
2024/04/17 09:28:15;;;;;;;9.32;2.05;;;11.50;99.90;;;;;;5513681;26;20016;-66
2024/04/17 09:30:47;;;;;;;8.88;2.05;;;11.50;99.90;;;;;;5516488;26;20082;-66
2024/04/17 09:33:12;;;;;;;10.07;1.98;;;11.50;99.90;;;;;;5511171;25;20557;-66
2024/04/17 09:35:38;;;;;;;4.60;1.60;;;11.30;99.10;;;;;;5515676;26;20005;-66
2024/04/17 09:38:16;;;;;;;7.60;1.75;;;11.20;99.30;;;;;;5481416;26;20072;-66
2024/04/17 09:40:45;;;;;;;12.60;2.00;;;11.10;99.80;;;;;;5510523;25;20009;-66
2024/04/17 09:43:25;;;;;;;7.18;1.83;;;11.20;99.90;;;;;;5516647;25;20779;-66
2024/04/17 09:45:58;;;;;;;8.18;2.03;;;11.10;99.90;;;;;;5518226;26;20425;-66
2024/04/17 09:48:26;;;;;;;12.65;2.03;;;11.20;99.90;;;;;;5505554;26;20078;-66
2024/04/17 09:51:00;;;;;;;9.00;1.67;;;11.20;99.90;;;;;;5515247;26;20016;-66
2024/04/17 09:53:32;;;;;;;8.45;2.05;;;11.10;99.90;;;;;;5516316;25;19993;-66
2024/04/17 09:55:59;;;;;;;5.25;1.50;;;11.00;99.90;;;;;;5507424;26;20048;-66
2024/04/17 09:58:32;;;;;;;8.82;1.52;;;11.00;99.90;;;;;;5506760;26;20000;-66
2024/04/17 10:01:03;;;;;;;8.18;2.10;;;10.90;99.90;;;;;;5507104;26;20015;-66
2024/04/17 10:03:38;;;;;;;10.15;1.70;;;10.90;99.90;;;;;;5513305;25;20005;-66
2024/04/17 10:06:04;;;;;;;6.88;1.85;;;10.80;99.90;;;;;;5503046;25;20001;-66
2024/04/17 10:08:35;;;;;;;12.50;1.95;;;10.70;99.90;;;;;;5482408;26;20009;-66
2024/04/17 10:11:02;;;;;;;11.18;1.75;;;10.70;99.90;;;;;;5475933;26;20033;-66
2024/04/17 10:13:28;;;;;;;8.23;1.55;;;10.70;99.90;;;;;;5483117;26;20001;-66
2024/04/17 10:15:54;;;;;;;6.22;1.90;;;10.80;99.90;;;;;;5511457;26;20013;-66
2024/04/17 10:18:20;;;;;;;5.00;1.60;;;11.00;99.90;;;;;;5508369;26;20017;-66
2024/04/17 10:20:46;;;;;;;3.85;1.48;;;11.10;99.90;;;;;;5480962;26;20016;-66
2024/04/17 10:23:14;;;;;;;3.65;1.38;;;11.30;99.90;;;;;;5514871;25;20013;-66
2024/04/17 10:25:45;;;;;;;3.45;1.00;;;11.60;99.90;;;;;;5511142;26;20455;-66
2024/04/17 10:28:13;;;;;;;1.25;0.70;;;11.70;99.90;;;;;;5515922;26;20037;-66
2024/04/17 10:30:39;;;;;;;4.15;0.85;;;11.70;99.90;;;;;;5483039;26;19997;-66
2024/04/17 10:33:19;;;;;;;3.50;1.05;;;11.80;99.40;;;;;;5473272;26;19998;-66
2024/04/17 10:35:49;;;;;;;2.42;0.80;;;11.80;99.90;;;;;;5513254;26;20098;-66
2024/04/17 10:38:15;;;;;;;4.57;0.82;;;11.90;99.00;;;;;;5512276;26;20043;-66
2024/04/17 10:40:41;;;;;;;2.25;0.70;;;11.80;98.20;;;;;;5480337;26;19999;-66
2024/04/17 10:43:06;;;;;;;1.33;0.63;;;11.90;98.30;;;;;;5491543;26;20013;-66
2024/04/17 10:45:32;;;;;;;1.58;0.40;;;11.80;97.00;;;;;;5474827;26;20451;-66
2024/04/17 10:48:03;;;;;;;5.25;0.95;;;11.70;96.10;;;;;;5478214;26;20014;-66
2024/04/17 10:50:29;;;;;;;3.70;1.10;;;11.60;97.30;;;;;;5475506;26;20016;-66
2024/04/17 10:52:57;;;;;;;6.20;1.65;;;11.50;96.60;;;;;;5477321;26;20438;-66
2024/04/17 10:55:24;;;;;;;3.42;1.13;;;11.10;96.20;;;;;;5467128;26;20043;-66
2024/04/17 10:57:50;;;;;;;2.60;1.10;;;10.80;96.50;;;;;;5494007;26;20350;-66
2024/04/17 11:00:15;;;;;;;1.10;0.73;;;10.60;96.60;;;;;;5490442;26;20002;-66
2024/04/17 11:02:41;;;;;;;3.15;1.00;;;10.60;97.00;;;;;;5473920;26;20048;-66
2024/04/17 11:05:06;;;;;;;3.35;0.98;;;10.80;96.90;;;;;;5519125;26;19997;-66
2024/04/17 11:07:32;;;;;;;1.75;0.90;;;10.80;96.50;;;;;;5518149;26;20411;-66
2024/04/17 11:09:58;;;;;;;4.68;0.93;;;10.90;97.00;;;;;;5518801;25;20005;-66
2024/04/17 11:12:23;;;;;;;1.77;1.00;;;10.90;95.80;;;;;;5484116;26;20045;-66
2024/04/17 11:14:59;;;;;;;4.63;0.95;;;10.90;95.80;;;;;;5517872;26;20070;-66
2024/04/17 11:17:25;;;;;;;4.82;1.20;;;11.00;96.30;;;;;;5518617;26;20498;-66
2024/04/17 11:19:51;;;;;;;4.22;0.98;;;11.10;96.50;;;;;;5518327;26;20013;-66
2024/04/17 11:22:17;;;;;;;5.03;1.13;;;11.00;94.60;;;;;;5513991;26;20001;-66
2024/04/17 11:24:49;;;;;;;2.88;1.02;;;11.10;95.20;;;;;;5517852;26;19997;-66
2024/04/17 11:27:16;;;;;;;2.15;1.08;;;11.10;94.90;;;;;;5506276;26;20002;-66
2024/04/17 11:29:45;;;;;;;5.35;0.77;;;11.30;95.10;;;;;;5507069;26;20776;-66
2024/04/17 11:32:11;;;;;;;2.75;0.80;;;11.40;96.00;;;;;;5505951;25;19997;-66
2024/04/17 11:34:36;;;;;;;1.67;0.80;;;11.50;95.60;;;;;;5513285;26;19997;-66
2024/04/17 11:37:07;;;;;;;3.30;1.30;;;11.80;96.60;;;;;;5495050;26;20038;-66
2024/04/17 11:39:34;;;;;;;3.05;1.23;;;12.20;97.60;;;;;;5471581;26;20477;-66
2024/04/17 11:42:01;;;;;;;7.55;1.23;;;12.50;97.80;;;;;;5487177;26;20349;-66
2024/04/17 11:44:27;;;;;;;3.30;1.17;;;12.70;97.50;;;;;;5487198;26;20057;-66
2024/04/17 11:46:53;;;;;;;2.95;1.17;;;12.80;97.00;;;;;;5498458;26;20407;-66
2024/04/17 11:49:19;;;;;;;2.25;0.90;;;12.50;95.60;;;;;;5517879;26;20006;-66
2024/04/17 11:51:45;;;;;;;6.68;0.85;;;12.60;96.10;;;;;;5510143;26;20012;-66
2024/04/17 11:54:11;;;;;;;8.05;1.17;;;12.50;96.00;;;;;;5512042;26;20009;-66
2024/04/17 11:56:37;;;;;;;2.90;1.02;;;12.30;95.80;;;;;;5519058;26;20002;-66
2024/04/17 11:59:02;;;;;;;4.72;1.10;;;12.30;95.70;;;;;;5518951;26;20041;-66
2024/04/17 12:01:28;;;;;;;5.20;2.33;;;12.10;95.90;;;;;;5518382;26;20005;-66
2024/04/17 12:03:54;;;;;;;6.47;1.13;;;12.10;95.70;;;;;;5514751;25;20094;-66
2024/04/17 12:06:20;;;;;;;2.67;1.15;;;12.10;95.60;;;;;;5482666;26;19994;-66
2024/04/17 12:08:46;;;;;;;3.58;1.00;;;12.10;95.70;;;;;;5517942;26;20807;-66
2024/04/17 12:11:12;;;;;;;2.75;0.93;;;12.10;95.40;;;;;;5518867;26;20045;-66
2024/04/17 12:13:38;;;;;;;2.75;1.20;;;12.10;95.10;;;;;;5485037;26;20012;-66
2024/04/17 12:16:04;;;;;;;2.35;1.10;;;12.00;95.30;;;;;;5516084;26;20012;-66
2024/04/17 12:18:30;;;;;;;2.63;1.23;;;12.10;95.20;;;;;;5516530;25;19994;-66
2024/04/17 12:20:56;;;;;;;4.55;0.95;;;12.20;95.20;;;;;;5517076;26;20077;-66
2024/04/17 12:23:21;;;;;;;5.20;1.33;;;12.20;94.50;;;;;;5518316;25;19997;-66
2024/04/17 12:28:32;;;;;;;1.73;0.65;;;12.40;93.20;;;;;;5509096;25;20078;-66
2024/04/17 12:30:58;;;;;;;5.50;0.77;;;12.40;93.00;;;;;;5512110;26;19997;-66
2024/04/17 12:33:27;;;;;;;1.27;0.52;;;12.10;93.50;;;;;;5516417;25;20016;-66
2024/04/17 12:35:53;;;;;;;2.60;0.70;;;12.10;93.10;;;;;;5509253;26;20053;-66
2024/04/17 12:38:19;;;;;;;1.83;0.60;;;11.80;93.40;;;;;;5510904;26;19994;-66
2024/04/17 12:40:44;;;;;;;1.67;0.75;;;11.90;93.60;;;;;;5515786;26;20721;-65
2024/04/17 12:43:10;;;;;;;3.65;0.77;;;11.70;92.70;;;;;;5512149;25;20439;-66
2024/04/17 12:45:35;;;;;;;2.17;1.02;;;11.50;93.20;;;;;;5517242;26;19994;-66